UAL1604 KSFO-KDEN
Flight info
| Callsign | UAL1604 |
|---|---|
| Flight time | 1h 59m |
| Altitude | 39000 |
| Route | SNTNA2 SYRAH Q128 JSICA LUDOH BUMMP SSKII4 |
| Aircraft | B772/H-SDE2E3FGHIJ5LORVWXY/LB1D1 |
Departure
| Time | 2026-05-03 22:06 |
|---|---|
| Airport | San Francisco International Airport (KSFO) |
Arrival
| Time | 2026-05-04 00:06 |
|---|---|
| Airport | Denver International Airport (KDEN) |
| Time | Latitude | Longitude | Altitude | Speed | Heading |
|---|---|---|---|---|---|
| 2026-05-03 21:42 | 37.62135 | -122.38926 | 25 ft | 0 kts | 207° |
| 2026-05-03 21:51 | 37.62151 | -122.38915 | 24 ft | 3 kts | 207° |
| 2026-05-03 21:52 | 37.62172 | -122.38901 | 25 ft | 3 kts | 207° |
| 2026-05-03 21:52 | 37.62192 | -122.38888 | 26 ft | 3 kts | 207° |
| 2026-05-03 21:52 | 37.62209 | -122.38876 | 26 ft | 3 kts | 206° |
| 2026-05-03 21:52 | 37.62227 | -122.38868 | 26 ft | 3 kts | 178° |
| 2026-05-03 21:53 | 37.62243 | -122.38872 | 26 ft | 3 kts | 136° |
| 2026-05-03 21:53 | 37.62254 | -122.38891 | 25 ft | 3 kts | 117° |
| 2026-05-03 21:53 | 37.62263 | -122.38914 | 26 ft | 1 kts | 117° |
| 2026-05-03 21:56 | 37.62260 | -122.38906 | 26 ft | 5 kts | 117° |
| 2026-05-03 21:57 | 37.62239 | -122.38855 | 26 ft | 7 kts | 117° |
| 2026-05-03 21:57 | 37.62217 | -122.38803 | 26 ft | 7 kts | 117° |
| 2026-05-03 21:57 | 37.62191 | -122.38740 | 26 ft | 12 kts | 117° |
| 2026-05-03 21:57 | 37.62146 | -122.38633 | 26 ft | 14 kts | 117° |
| 2026-05-03 21:58 | 37.62101 | -122.38525 | 26 ft | 14 kts | 118° |
| 2026-05-03 21:58 | 37.62056 | -122.38417 | 26 ft | 14 kts | 117° |
| 2026-05-03 21:58 | 37.62011 | -122.38309 | 26 ft | 14 kts | 118° |
| 2026-05-03 21:58 | 37.61966 | -122.38202 | 26 ft | 14 kts | 118° |
| 2026-05-03 21:59 | 37.61920 | -122.38094 | 26 ft | 14 kts | 118° |
| 2026-05-03 21:59 | 37.61875 | -122.37987 | 26 ft | 14 kts | 118° |
| 2026-05-03 21:59 | 37.61833 | -122.37877 | 26 ft | 14 kts | 112° |
| 2026-05-03 21:59 | 37.61797 | -122.37765 | 26 ft | 14 kts | 111° |
| 2026-05-03 22:00 | 37.61763 | -122.37652 | 26 ft | 14 kts | 111° |
| 2026-05-03 22:00 | 37.61727 | -122.37538 | 26 ft | 14 kts | 112° |
| 2026-05-03 22:00 | 37.61685 | -122.37429 | 26 ft | 14 kts | 118° |
| 2026-05-03 22:00 | 37.61639 | -122.37322 | 26 ft | 14 kts | 118° |
| 2026-05-03 22:01 | 37.61594 | -122.37214 | 26 ft | 14 kts | 117° |
| 2026-05-03 22:01 | 37.61550 | -122.37107 | 25 ft | 14 kts | 117° |
| 2026-05-03 22:01 | 37.61504 | -122.36995 | 25 ft | 15 kts | 117° |
| 2026-05-03 22:01 | 37.61438 | -122.36884 | 26 ft | 16 kts | 133° |
| 2026-05-03 22:02 | 37.61364 | -122.36776 | 26 ft | 16 kts | 122° |
| 2026-05-03 22:02 | 37.61311 | -122.36650 | 26 ft | 16 kts | 117° |
| 2026-05-03 22:02 | 37.61258 | -122.36524 | 26 ft | 16 kts | 118° |
| 2026-05-03 22:02 | 37.61205 | -122.36399 | 26 ft | 16 kts | 118° |
| 2026-05-03 22:03 | 37.61152 | -122.36273 | 26 ft | 16 kts | 118° |
| 2026-05-03 22:03 | 37.61099 | -122.36147 | 25 ft | 16 kts | 118° |
| 2026-05-03 22:03 | 37.61056 | -122.36038 | 26 ft | 12 kts | 108° |
| 2026-05-03 22:03 | 37.61062 | -122.35953 | 26 ft | 9 kts | 66° |
| 2026-05-03 22:04 | 37.61088 | -122.35913 | 26 ft | 2 kts | 35° |
| 2026-05-03 22:04 | 37.61091 | -122.35911 | 26 ft | 0 kts | 31° |
| 2026-05-03 22:04 | 37.61092 | -122.35910 | 26 ft | 2 kts | 31° |
| 2026-05-03 22:05 | 37.61114 | -122.35894 | 26 ft | 4 kts | 28° |
| 2026-05-03 22:05 | 37.61150 | -122.35870 | 26 ft | 6 kts | 28° |
| 2026-05-03 22:05 | 37.61184 | -122.35875 | 26 ft | 5 kts | 320° |
| 2026-05-03 22:05 | 37.61221 | -122.35959 | 26 ft | 26 kts | 298° |
| 2026-05-03 22:06 | 37.61422 | -122.36443 | 26 ft | 102 kts | 298° |
| 2026-05-03 22:06 | 37.61873 | -122.37516 | 41 ft | 171 kts | 297° |
| 2026-05-03 22:06 | 37.62472 | -122.38887 | 765 ft | 180 kts | 295° |
| 2026-05-03 22:06 | 37.63068 | -122.40323 | 1555 ft | 186 kts | 295° |
| 2026-05-03 22:07 | 37.63701 | -122.41831 | 1761 ft | 203 kts | 296° |
| 2026-05-03 22:07 | 37.64398 | -122.43458 | 1842 ft | 221 kts | 296° |
| 2026-05-03 22:07 | 37.65153 | -122.45210 | 2008 ft | 234 kts | 296° |
| 2026-05-03 22:07 | 37.65963 | -122.47083 | 2347 ft | 250 kts | 296° |
| 2026-05-03 22:08 | 37.66811 | -122.49034 | 3054 ft | 257 kts | 296° |
| 2026-05-03 22:08 | 37.67734 | -122.50978 | 3710 ft | 262 kts | 307° |
| 2026-05-03 22:08 | 37.69267 | -122.52294 | 4312 ft | 273 kts | 343° |
| 2026-05-03 22:08 | 37.71150 | -122.52552 | 4992 ft | 274 kts | 359° |
| 2026-05-03 22:09 | 37.73079 | -122.52601 | 5661 ft | 280 kts | 359° |
| 2026-05-03 22:09 | 37.75052 | -122.52661 | 6342 ft | 286 kts | 359° |
| 2026-05-03 22:09 | 37.77048 | -122.52728 | 7030 ft | 290 kts | 359° |
| 2026-05-03 22:10 | 37.80739 | -122.51169 | 8308 ft | 288 kts | 49° |
| 2026-05-03 22:10 | 37.81839 | -122.49096 | 9080 ft | 283 kts | 68° |
| 2026-05-03 22:10 | 37.82650 | -122.46797 | 9741 ft | 288 kts | 69° |
| 2026-05-03 22:10 | 37.83456 | -122.44459 | 10367 ft | 296 kts | 70° |
| 2026-05-03 22:11 | 37.84085 | -122.41944 | 10518 ft | 314 kts | 82° |
| 2026-05-03 22:11 | 37.84432 | -122.39148 | 11010 ft | 326 kts | 84° |
| 2026-05-03 22:11 | 37.84747 | -122.36270 | 11686 ft | 334 kts | 84° |
| 2026-05-03 22:11 | 37.85065 | -122.33339 | 12445 ft | 339 kts | 84° |
| 2026-05-03 22:12 | 37.85394 | -122.30370 | 13264 ft | 343 kts | 84° |
| 2026-05-03 22:12 | 37.85735 | -122.27365 | 14058 ft | 347 kts | 84° |
| 2026-05-03 22:12 | 37.86085 | -122.24325 | 14818 ft | 351 kts | 84° |
| 2026-05-03 22:12 | 37.86444 | -122.21264 | 15594 ft | 353 kts | 84° |
| 2026-05-03 22:13 | 37.86802 | -122.18208 | 16349 ft | 356 kts | 84° |
| 2026-05-03 22:13 | 37.87170 | -122.15087 | 17057 ft | 360 kts | 84° |
| 2026-05-03 22:13 | 37.87542 | -122.11933 | 17796 ft | 364 kts | 84° |
| 2026-05-03 22:13 | 37.87918 | -122.08743 | 18513 ft | 368 kts | 84° |
| 2026-05-03 22:14 | 37.88297 | -122.05535 | 19194 ft | 370 kts | 84° |
| 2026-05-03 22:14 | 37.88676 | -122.02304 | 19941 ft | 371 kts | 84° |
| 2026-05-03 22:14 | 37.89056 | -121.99064 | 20650 ft | 373 kts | 84° |
| 2026-05-03 22:14 | 37.89436 | -121.95812 | 21350 ft | 375 kts | 84° |
| 2026-05-03 22:15 | 37.89818 | -121.92537 | 22026 ft | 377 kts | 84° |
| 2026-05-03 22:15 | 37.90202 | -121.89234 | 22682 ft | 381 kts | 84° |
| 2026-05-03 22:15 | 37.90587 | -121.85908 | 23384 ft | 383 kts | 84° |
| 2026-05-03 22:15 | 37.90975 | -121.82555 | 23998 ft | 385 kts | 84° |
| 2026-05-03 22:16 | 37.91364 | -121.79192 | 24587 ft | 387 kts | 84° |
| 2026-05-03 22:16 | 37.91755 | -121.75796 | 25172 ft | 390 kts | 84° |
| 2026-05-03 22:16 | 37.92147 | -121.72385 | 25767 ft | 393 kts | 84° |
| 2026-05-03 22:16 | 37.92541 | -121.68950 | 26377 ft | 395 kts | 84° |
| 2026-05-03 22:17 | 37.92936 | -121.65491 | 26964 ft | 398 kts | 84° |
| 2026-05-03 22:17 | 37.93328 | -121.62053 | 27537 ft | 401 kts | 84° |
| 2026-05-03 22:17 | 37.93731 | -121.58505 | 28158 ft | 403 kts | 84° |
| 2026-05-03 22:17 | 37.94130 | -121.54983 | 28762 ft | 405 kts | 84° |
| 2026-05-03 22:18 | 37.94531 | -121.51439 | 29288 ft | 409 kts | 84° |
| 2026-05-03 22:18 | 37.94929 | -121.47905 | 29756 ft | 413 kts | 84° |
| 2026-05-03 22:18 | 37.95336 | -121.44282 | 30220 ft | 416 kts | 84° |
| 2026-05-03 22:18 | 37.95745 | -121.40629 | 30514 ft | 423 kts | 84° |
| 2026-05-03 22:19 | 37.96160 | -121.36906 | 30734 ft | 430 kts | 84° |
| 2026-05-03 22:19 | 37.96581 | -121.33132 | 31049 ft | 435 kts | 84° |
| 2026-05-03 22:19 | 37.97004 | -121.29319 | 31393 ft | 439 kts | 84° |
| 2026-05-03 22:19 | 37.97431 | -121.25467 | 31708 ft | 443 kts | 84° |
| 2026-05-03 22:20 | 37.97862 | -121.21572 | 31973 ft | 449 kts | 84° |
| 2026-05-03 22:20 | 37.98296 | -121.17634 | 32244 ft | 453 kts | 84° |
| 2026-05-03 22:20 | 37.98733 | -121.13652 | 32540 ft | 457 kts | 84° |
| 2026-05-03 22:20 | 37.99178 | -121.09642 | 32829 ft | 461 kts | 83° |
| 2026-05-03 22:21 | 37.99720 | -121.05606 | 33084 ft | 466 kts | 82° |
| 2026-05-03 22:21 | 38.00347 | -121.01541 | 33335 ft | 471 kts | 81° |
| 2026-05-03 22:21 | 38.01008 | -120.97462 | 33595 ft | 474 kts | 81° |
| 2026-05-03 22:21 | 38.01677 | -120.93355 | 33863 ft | 477 kts | 81° |
| 2026-05-03 22:22 | 38.02338 | -120.89260 | 34067 ft | 481 kts | 81° |
| 2026-05-03 22:22 | 38.02998 | -120.85094 | 34292 ft | 483 kts | 81° |
| 2026-05-03 22:22 | 38.03650 | -120.80914 | 34570 ft | 484 kts | 81° |
| 2026-05-03 22:22 | 38.04298 | -120.76714 | 34869 ft | 485 kts | 81° |
| 2026-05-03 22:23 | 38.04942 | -120.72508 | 35110 ft | 486 kts | 81° |
| 2026-05-03 22:23 | 38.05584 | -120.68288 | 35364 ft | 488 kts | 81° |
| 2026-05-03 22:23 | 38.06227 | -120.64053 | 35630 ft | 489 kts | 81° |
| 2026-05-03 22:23 | 38.06870 | -120.59807 | 35894 ft | 490 kts | 81° |
| 2026-05-03 22:24 | 38.07513 | -120.55555 | 36140 ft | 491 kts | 81° |
| 2026-05-03 22:24 | 38.08156 | -120.51293 | 36384 ft | 492 kts | 81° |
| 2026-05-03 22:24 | 38.08800 | -120.47017 | 36646 ft | 493 kts | 81° |
| 2026-05-03 22:24 | 38.09443 | -120.42741 | 36884 ft | 494 kts | 81° |
| 2026-05-03 22:25 | 38.10087 | -120.38439 | 37120 ft | 495 kts | 81° |
| 2026-05-03 22:25 | 38.10728 | -120.34144 | 37399 ft | 496 kts | 81° |
| 2026-05-03 22:25 | 38.11371 | -120.29828 | 37618 ft | 498 kts | 81° |
| 2026-05-03 22:25 | 38.12005 | -120.25566 | 37824 ft | 499 kts | 81° |
| 2026-05-03 22:26 | 38.12649 | -120.21227 | 38050 ft | 500 kts | 81° |
| 2026-05-03 22:26 | 38.13294 | -120.16868 | 38294 ft | 501 kts | 82° |
| 2026-05-03 22:26 | 38.13935 | -120.12519 | 38522 ft | 502 kts | 82° |
| 2026-05-03 22:26 | 38.14576 | -120.08159 | 38729 ft | 503 kts | 82° |
| 2026-05-03 22:27 | 38.15219 | -120.03779 | 38850 ft | 504 kts | 82° |
| 2026-05-03 22:27 | 38.16500 | -119.95005 | 38941 ft | 504 kts | 82° |
| 2026-05-03 22:28 | 38.17773 | -119.86247 | 38959 ft | 503 kts | 82° |
| 2026-05-03 22:28 | 38.19025 | -119.77586 | 38962 ft | 501 kts | 82° |
| 2026-05-03 22:29 | 38.20279 | -119.68864 | 38971 ft | 501 kts | 82° |
| 2026-05-03 22:29 | 38.21523 | -119.60154 | 38970 ft | 501 kts | 82° |
| 2026-05-03 22:30 | 38.22767 | -119.51407 | 38956 ft | 502 kts | 82° |
| 2026-05-03 22:30 | 38.24003 | -119.42662 | 38936 ft | 502 kts | 82° |
| 2026-05-03 22:31 | 38.25025 | -119.35387 | 38929 ft | 503 kts | 82° |
| 2026-05-03 22:31 | 38.26251 | -119.26627 | 38917 ft | 502 kts | 82° |
| 2026-05-03 22:32 | 38.27468 | -119.17872 | 38906 ft | 502 kts | 82° |
| 2026-05-03 22:32 | 38.28679 | -119.09111 | 38886 ft | 503 kts | 82° |
| 2026-05-03 22:33 | 38.29887 | -119.00334 | 38875 ft | 503 kts | 82° |
| 2026-05-03 22:33 | 38.31088 | -118.91548 | 38871 ft | 504 kts | 82° |
| 2026-05-03 22:34 | 38.32286 | -118.82736 | 38876 ft | 505 kts | 82° |
| 2026-05-03 22:34 | 38.33470 | -118.73980 | 38881 ft | 505 kts | 82° |
| 2026-05-03 22:35 | 38.34656 | -118.65150 | 38887 ft | 505 kts | 82° |
| 2026-05-03 22:35 | 38.35836 | -118.56320 | 38889 ft | 506 kts | 82° |
| 2026-05-03 22:36 | 38.37010 | -118.47474 | 38885 ft | 506 kts | 82° |
| 2026-05-03 22:36 | 38.38178 | -118.38623 | 38852 ft | 506 kts | 82° |
| 2026-05-03 22:37 | 38.39339 | -118.29772 | 38824 ft | 506 kts | 82° |
| 2026-05-03 22:37 | 38.40494 | -118.20912 | 38804 ft | 506 kts | 83° |
| 2026-05-03 22:38 | 38.41634 | -118.12115 | 38793 ft | 506 kts | 83° |
| 2026-05-03 22:38 | 38.42775 | -118.03262 | 38806 ft | 505 kts | 83° |
| 2026-05-03 22:39 | 38.43907 | -117.94417 | 38807 ft | 505 kts | 83° |
| 2026-05-03 22:39 | 38.45032 | -117.85580 | 38806 ft | 504 kts | 83° |
| 2026-05-03 22:40 | 38.46148 | -117.76745 | 38816 ft | 504 kts | 83° |
| 2026-05-03 22:40 | 38.47257 | -117.67921 | 38817 ft | 503 kts | 83° |
| 2026-05-03 22:41 | 38.48358 | -117.59105 | 38815 ft | 503 kts | 83° |
| 2026-05-03 22:41 | 38.49451 | -117.50288 | 38832 ft | 503 kts | 83° |
| 2026-05-03 22:42 | 38.50533 | -117.41513 | 38832 ft | 503 kts | 83° |
| 2026-05-03 22:42 | 38.51614 | -117.32694 | 38842 ft | 503 kts | 83° |
| 2026-05-03 22:43 | 38.52097 | -117.23827 | 38848 ft | 499 kts | 94° |
| 2026-05-03 22:43 | 38.51857 | -117.14960 | 38860 ft | 499 kts | 95° |
| 2026-05-03 22:44 | 38.51575 | -117.06091 | 38856 ft | 500 kts | 95° |
| 2026-05-03 22:44 | 38.51322 | -116.97217 | 38869 ft | 500 kts | 94° |
| 2026-05-03 22:45 | 38.51087 | -116.88346 | 38875 ft | 501 kts | 94° |
| 2026-05-03 22:45 | 38.50851 | -116.79440 | 38882 ft | 501 kts | 94° |
| 2026-05-03 22:46 | 38.50607 | -116.70545 | 38867 ft | 502 kts | 94° |
| 2026-05-03 22:46 | 38.50355 | -116.61693 | 38870 ft | 502 kts | 94° |
| 2026-05-03 22:47 | 38.50095 | -116.52792 | 38873 ft | 502 kts | 95° |
| 2026-05-03 22:47 | 38.49828 | -116.43879 | 38864 ft | 502 kts | 94° |
| 2026-05-03 22:48 | 38.49554 | -116.34948 | 38851 ft | 503 kts | 94° |
| 2026-05-03 22:48 | 38.49273 | -116.26022 | 38848 ft | 502 kts | 94° |
| 2026-05-03 22:49 | 38.48985 | -116.17102 | 38839 ft | 502 kts | 94° |
| 2026-05-03 22:49 | 38.48692 | -116.08207 | 38822 ft | 502 kts | 94° |
| 2026-05-03 22:50 | 38.48394 | -115.99385 | 38820 ft | 501 kts | 94° |
| 2026-05-03 22:50 | 38.48087 | -115.90507 | 38818 ft | 500 kts | 94° |
| 2026-05-03 22:51 | 38.47774 | -115.81631 | 38807 ft | 499 kts | 95° |
| 2026-05-03 22:51 | 38.47455 | -115.72771 | 38809 ft | 499 kts | 95° |
| 2026-05-03 22:52 | 38.47129 | -115.63925 | 38810 ft | 499 kts | 95° |
| 2026-05-03 22:52 | 38.46797 | -115.55076 | 38813 ft | 499 kts | 95° |
| 2026-05-03 22:53 | 38.46458 | -115.46219 | 38815 ft | 500 kts | 95° |
| 2026-05-03 22:53 | 38.46114 | -115.37412 | 38819 ft | 500 kts | 95° |
| 2026-05-03 22:54 | 38.45762 | -115.28545 | 38819 ft | 500 kts | 95° |
| 2026-05-03 22:54 | 38.45401 | -115.19670 | 38820 ft | 500 kts | 95° |
| 2026-05-03 22:55 | 38.45034 | -115.10801 | 38819 ft | 501 kts | 95° |
| 2026-05-03 22:55 | 38.44660 | -115.01928 | 38822 ft | 501 kts | 95° |
| 2026-05-03 22:56 | 38.44283 | -114.93103 | 38827 ft | 502 kts | 95° |
| 2026-05-03 22:56 | 38.43895 | -114.84212 | 38828 ft | 502 kts | 95° |
| 2026-05-03 22:57 | 38.43501 | -114.75325 | 38839 ft | 501 kts | 95° |
| 2026-05-03 22:57 | 38.43100 | -114.66433 | 38839 ft | 501 kts | 95° |
| 2026-05-03 22:58 | 38.42692 | -114.57551 | 38840 ft | 501 kts | 95° |
| 2026-05-03 22:58 | 38.42279 | -114.48690 | 38845 ft | 500 kts | 95° |
| 2026-05-03 22:59 | 38.41862 | -114.39886 | 38850 ft | 500 kts | 95° |
| 2026-05-03 22:59 | 38.41435 | -114.31035 | 38845 ft | 500 kts | 95° |
| 2026-05-03 23:00 | 38.41002 | -114.22180 | 38844 ft | 499 kts | 95° |
| 2026-05-03 23:00 | 38.40564 | -114.13353 | 38844 ft | 498 kts | 95° |
| 2026-05-03 23:01 | 38.40119 | -114.04534 | 38852 ft | 498 kts | 95° |
| 2026-05-03 23:01 | 38.39669 | -113.95724 | 38848 ft | 498 kts | 95° |
| 2026-05-03 23:02 | 38.39211 | -113.86912 | 38837 ft | 498 kts | 95° |
| 2026-05-03 23:02 | 38.38747 | -113.78111 | 38843 ft | 497 kts | 95° |
| 2026-05-03 23:03 | 38.38281 | -113.69388 | 38838 ft | 496 kts | 95° |
| 2026-05-03 23:03 | 38.37806 | -113.60614 | 38840 ft | 496 kts | 95° |
| 2026-05-03 23:04 | 38.37323 | -113.51837 | 38840 ft | 496 kts | 95° |
| 2026-05-03 23:04 | 38.36834 | -113.43066 | 38826 ft | 496 kts | 95° |
| 2026-05-03 23:05 | 38.36339 | -113.34292 | 38864 ft | 496 kts | 95° |
| 2026-05-03 23:05 | 38.35841 | -113.25573 | 38883 ft | 496 kts | 95° |
| 2026-05-03 23:06 | 38.35332 | -113.16788 | 38920 ft | 497 kts | 95° |
| 2026-05-03 23:06 | 38.34816 | -113.08010 | 38927 ft | 497 kts | 95° |
| 2026-05-03 23:07 | 38.34294 | -112.99224 | 38939 ft | 497 kts | 95° |
| 2026-05-03 23:07 | 38.33764 | -112.90430 | 38930 ft | 498 kts | 95° |
| 2026-05-03 23:08 | 38.33226 | -112.81614 | 38900 ft | 499 kts | 95° |
| 2026-05-03 23:08 | 38.32683 | -112.72799 | 38896 ft | 499 kts | 95° |
| 2026-05-03 23:09 | 38.32131 | -112.63966 | 38890 ft | 500 kts | 95° |
| 2026-05-03 23:09 | 38.31575 | -112.55180 | 38882 ft | 501 kts | 95° |
| 2026-05-03 23:10 | 38.31008 | -112.46318 | 38888 ft | 503 kts | 95° |
| 2026-05-03 23:10 | 38.30434 | -112.37449 | 38902 ft | 503 kts | 95° |
| 2026-05-03 23:11 | 38.29851 | -112.28561 | 38900 ft | 504 kts | 95° |
| 2026-05-03 23:11 | 38.29262 | -112.19676 | 38915 ft | 504 kts | 95° |
| 2026-05-03 23:12 | 38.28665 | -112.10776 | 38913 ft | 505 kts | 95° |
| 2026-05-03 23:12 | 38.28061 | -112.01867 | 38921 ft | 505 kts | 95° |
| 2026-05-03 23:13 | 38.27451 | -111.92966 | 38927 ft | 505 kts | 95° |
| 2026-05-03 23:13 | 38.26835 | -111.84103 | 38924 ft | 507 kts | 95° |
| 2026-05-03 23:14 | 38.26208 | -111.75159 | 38928 ft | 507 kts | 95° |
| 2026-05-03 23:14 | 38.25576 | -111.66243 | 38844 ft | 503 kts | 95° |
| 2026-05-03 23:14 | 38.25260 | -111.61813 | 38549 ft | 503 kts | 95° |
| 2026-05-03 23:15 | 38.24941 | -111.57373 | 38091 ft | 505 kts | 96° |
| 2026-05-03 23:15 | 38.24619 | -111.52916 | 37742 ft | 507 kts | 96° |
| 2026-05-03 23:15 | 38.24294 | -111.48447 | 37469 ft | 508 kts | 95° |
| 2026-05-03 23:15 | 38.23967 | -111.43975 | 37202 ft | 509 kts | 95° |
| 2026-05-03 23:16 | 38.23638 | -111.39485 | 36986 ft | 509 kts | 96° |
| 2026-05-03 23:16 | 38.22973 | -111.30504 | 36892 ft | 510 kts | 96° |
| 2026-05-03 23:17 | 38.22301 | -111.21504 | 36866 ft | 511 kts | 96° |
| 2026-05-03 23:17 | 38.21623 | -111.12518 | 36853 ft | 511 kts | 96° |
| 2026-05-03 23:18 | 38.20935 | -111.03512 | 36866 ft | 511 kts | 96° |
| 2026-05-03 23:18 | 38.20359 | -110.96031 | 36878 ft | 512 kts | 96° |
| 2026-05-03 23:19 | 38.19543 | -110.85544 | 36887 ft | 513 kts | 96° |
| 2026-05-03 23:19 | 38.18948 | -110.77967 | 36890 ft | 515 kts | 96° |
| 2026-05-03 23:20 | 38.18113 | -110.67444 | 36888 ft | 515 kts | 96° |
| 2026-05-03 23:20 | 38.17504 | -110.59843 | 36881 ft | 516 kts | 96° |
| 2026-05-03 23:21 | 38.16769 | -110.50755 | 36856 ft | 517 kts | 96° |
| 2026-05-03 23:21 | 38.16032 | -110.41727 | 36841 ft | 517 kts | 96° |
| 2026-05-03 23:22 | 38.14902 | -110.28054 | 36832 ft | 519 kts | 96° |
| 2026-05-03 23:22 | 38.14139 | -110.18915 | 36841 ft | 521 kts | 96° |
| 2026-05-03 23:23 | 38.13529 | -110.09745 | 36831 ft | 521 kts | 92° |
| 2026-05-03 23:23 | 38.13294 | -110.00552 | 36865 ft | 520 kts | 91° |
| 2026-05-03 23:24 | 38.13087 | -109.91360 | 36876 ft | 520 kts | 91° |
| 2026-05-03 23:24 | 38.12847 | -109.82170 | 36874 ft | 520 kts | 91° |
| 2026-05-03 23:25 | 38.12582 | -109.72983 | 36886 ft | 521 kts | 91° |
| 2026-05-03 23:25 | 38.12307 | -109.63833 | 36897 ft | 521 kts | 91° |
| 2026-05-03 23:26 | 38.12027 | -109.54643 | 36913 ft | 521 kts | 91° |
| 2026-05-03 23:26 | 38.11739 | -109.45436 | 36928 ft | 521 kts | 91° |
| 2026-05-03 23:27 | 38.11445 | -109.36226 | 36924 ft | 522 kts | 91° |
| 2026-05-03 23:27 | 38.11144 | -109.27020 | 36951 ft | 522 kts | 91° |
| 2026-05-03 23:28 | 38.10835 | -109.17793 | 36952 ft | 523 kts | 91° |
| 2026-05-03 23:28 | 38.10520 | -109.08614 | 36944 ft | 524 kts | 91° |
| 2026-05-03 23:29 | 38.10196 | -108.99355 | 36935 ft | 524 kts | 92° |
| 2026-05-03 23:29 | 38.10260 | -108.94758 | 36935 ft | 520 kts | 80° |
| 2026-05-03 23:29 | 38.11143 | -108.90349 | 36930 ft | 514 kts | 63° |
| 2026-05-03 23:30 | 38.14398 | -108.82352 | 36939 ft | 511 kts | 58° |
| 2026-05-03 23:30 | 38.17692 | -108.74315 | 36938 ft | 514 kts | 59° |
| 2026-05-03 23:31 | 38.20894 | -108.66228 | 36939 ft | 516 kts | 60° |
| 2026-05-03 23:31 | 38.24081 | -108.58043 | 36945 ft | 516 kts | 60° |
| 2026-05-03 23:32 | 38.27268 | -108.49840 | 36943 ft | 516 kts | 60° |
| 2026-05-03 23:32 | 38.30446 | -108.41656 | 36905 ft | 517 kts | 59° |
| 2026-05-03 23:33 | 38.33681 | -108.33324 | 36956 ft | 531 kts | 59° |
| 2026-05-03 23:33 | 38.36959 | -108.24847 | 36967 ft | 542 kts | 60° |
| 2026-05-03 23:34 | 38.40292 | -108.16189 | 36982 ft | 543 kts | 60° |
| 2026-05-03 23:34 | 38.43613 | -108.07540 | 37014 ft | 542 kts | 60° |
| 2026-05-03 23:35 | 38.46915 | -107.98918 | 37044 ft | 540 kts | 60° |
| 2026-05-03 23:35 | 38.50179 | -107.90296 | 37050 ft | 538 kts | 60° |
| 2026-05-03 23:36 | 38.53419 | -107.81687 | 37051 ft | 537 kts | 60° |
| 2026-05-03 23:36 | 38.56645 | -107.73104 | 37034 ft | 536 kts | 60° |
| 2026-05-03 23:37 | 38.59842 | -107.64582 | 36991 ft | 534 kts | 61° |
| 2026-05-03 23:37 | 38.63044 | -107.56021 | 36979 ft | 533 kts | 61° |
| 2026-05-03 23:38 | 38.66239 | -107.47462 | 36952 ft | 533 kts | 60° |
| 2026-05-03 23:38 | 38.69471 | -107.38921 | 36962 ft | 532 kts | 60° |
| 2026-05-03 23:39 | 38.72710 | -107.30385 | 36977 ft | 532 kts | 60° |
| 2026-05-03 23:39 | 38.75929 | -107.21859 | 36995 ft | 531 kts | 61° |
| 2026-05-03 23:40 | 38.79130 | -107.13340 | 37013 ft | 530 kts | 61° |
| 2026-05-03 23:40 | 38.82297 | -107.04889 | 37018 ft | 528 kts | 61° |
| 2026-05-03 23:41 | 38.85472 | -106.96393 | 36997 ft | 528 kts | 61° |
| 2026-05-03 23:41 | 38.88639 | -106.87891 | 37018 ft | 528 kts | 61° |
| 2026-05-03 23:42 | 38.91801 | -106.79382 | 36723 ft | 532 kts | 61° |
| 2026-05-03 23:42 | 38.93401 | -106.75071 | 35935 ft | 535 kts | 61° |
| 2026-05-03 23:42 | 38.94993 | -106.70771 | 35214 ft | 531 kts | 62° |
| 2026-05-03 23:43 | 38.96562 | -106.66519 | 34712 ft | 523 kts | 62° |
| 2026-05-03 23:43 | 38.98108 | -106.62329 | 34193 ft | 511 kts | 62° |
| 2026-05-03 23:43 | 38.99604 | -106.58265 | 33653 ft | 496 kts | 62° |
| 2026-05-03 23:43 | 39.01069 | -106.54283 | 33172 ft | 491 kts | 62° |
| 2026-05-03 23:44 | 39.02519 | -106.50327 | 32711 ft | 486 kts | 62° |
| 2026-05-03 23:44 | 39.03952 | -106.46407 | 32235 ft | 482 kts | 62° |
| 2026-05-03 23:44 | 39.05371 | -106.42521 | 31735 ft | 478 kts | 62° |
| 2026-05-03 23:44 | 39.06776 | -106.38671 | 31308 ft | 474 kts | 62° |
| 2026-05-03 23:45 | 39.08170 | -106.34843 | 30839 ft | 471 kts | 63° |
| 2026-05-03 23:45 | 39.09555 | -106.31036 | 30368 ft | 468 kts | 63° |
| 2026-05-03 23:45 | 39.10931 | -106.27249 | 29817 ft | 465 kts | 63° |
| 2026-05-03 23:45 | 39.12296 | -106.23489 | 29233 ft | 462 kts | 63° |
| 2026-05-03 23:46 | 39.13648 | -106.19762 | 28678 ft | 458 kts | 63° |
| 2026-05-03 23:46 | 39.14987 | -106.16063 | 28105 ft | 453 kts | 63° |
| 2026-05-03 23:46 | 39.16315 | -106.12385 | 27551 ft | 449 kts | 63° |
| 2026-05-03 23:46 | 39.17622 | -106.08752 | 26991 ft | 445 kts | 63° |
| 2026-05-03 23:47 | 39.18902 | -106.05186 | 26447 ft | 442 kts | 63° |
| 2026-05-03 23:47 | 39.20189 | -106.01596 | 25891 ft | 439 kts | 63° |
| 2026-05-03 23:47 | 39.21465 | -105.98037 | 25351 ft | 436 kts | 63° |
| 2026-05-03 23:47 | 39.22738 | -105.94485 | 24805 ft | 433 kts | 63° |
| 2026-05-03 23:48 | 39.24000 | -105.90959 | 24279 ft | 431 kts | 63° |
| 2026-05-03 23:48 | 39.25258 | -105.87457 | 23705 ft | 427 kts | 63° |
| 2026-05-03 23:48 | 39.26489 | -105.84043 | 23127 ft | 415 kts | 63° |
| 2026-05-03 23:48 | 39.27704 | -105.80675 | 22592 ft | 412 kts | 63° |
| 2026-05-03 23:49 | 39.28880 | -105.77412 | 22105 ft | 410 kts | 63° |
| 2026-05-03 23:49 | 39.30074 | -105.74089 | 21598 ft | 407 kts | 63° |
| 2026-05-03 23:49 | 39.31245 | -105.70825 | 21181 ft | 403 kts | 64° |
| 2026-05-03 23:49 | 39.32421 | -105.67544 | 21024 ft | 392 kts | 64° |
| 2026-05-03 23:50 | 39.33557 | -105.64406 | 20595 ft | 390 kts | 63° |
| 2026-05-03 23:50 | 39.34339 | -105.62265 | 20315 ft | 389 kts | 63° |
| 2026-05-03 23:50 | 39.35867 | -105.58095 | 19739 ft | 387 kts | 63° |
| 2026-05-03 23:50 | 39.37015 | -105.54954 | 19313 ft | 385 kts | 63° |
| 2026-05-03 23:51 | 39.38153 | -105.51832 | 18883 ft | 384 kts | 64° |
| 2026-05-03 23:51 | 39.39286 | -105.48717 | 18458 ft | 378 kts | 64° |
| 2026-05-03 23:51 | 39.40369 | -105.45735 | 18294 ft | 356 kts | 64° |
| 2026-05-03 23:51 | 39.41367 | -105.42890 | 18092 ft | 340 kts | 69° |
| 2026-05-03 23:52 | 39.41812 | -105.39928 | 17745 ft | 334 kts | 88° |
| 2026-05-03 23:52 | 39.41819 | -105.36931 | 17392 ft | 332 kts | 90° |
| 2026-05-03 23:52 | 39.41802 | -105.33955 | 17016 ft | 331 kts | 90° |
| 2026-05-03 23:52 | 39.41788 | -105.30967 | 16588 ft | 332 kts | 90° |
| 2026-05-03 23:53 | 39.41785 | -105.27984 | 16225 ft | 331 kts | 89° |
| 2026-05-03 23:53 | 39.41787 | -105.25012 | 15851 ft | 330 kts | 89° |
| 2026-05-03 23:53 | 39.41796 | -105.22046 | 15489 ft | 329 kts | 89° |
| 2026-05-03 23:53 | 39.41806 | -105.19088 | 15115 ft | 329 kts | 89° |
| 2026-05-03 23:54 | 39.41818 | -105.16122 | 14729 ft | 330 kts | 89° |
| 2026-05-03 23:54 | 39.41830 | -105.13153 | 14361 ft | 330 kts | 89° |
| 2026-05-03 23:54 | 39.41844 | -105.10193 | 13971 ft | 330 kts | 89° |
| 2026-05-03 23:54 | 39.41854 | -105.07257 | 13573 ft | 321 kts | 89° |
| 2026-05-03 23:55 | 39.41864 | -105.04406 | 13447 ft | 313 kts | 89° |
| 2026-05-03 23:55 | 39.41873 | -105.01633 | 13325 ft | 303 kts | 89° |
| 2026-05-03 23:55 | 39.41881 | -104.98948 | 13166 ft | 294 kts | 89° |
| 2026-05-03 23:55 | 39.41888 | -104.96344 | 13037 ft | 285 kts | 89° |
| 2026-05-03 23:56 | 39.41907 | -104.93816 | 12857 ft | 277 kts | 85° |
| 2026-05-03 23:56 | 39.42091 | -104.91386 | 12594 ft | 273 kts | 81° |
| 2026-05-03 23:56 | 39.42331 | -104.88969 | 12356 ft | 271 kts | 81° |
| 2026-05-03 23:56 | 39.42567 | -104.86549 | 12098 ft | 271 kts | 82° |
| 2026-05-03 23:57 | 39.42795 | -104.84134 | 11833 ft | 270 kts | 82° |
| 2026-05-03 23:57 | 39.43015 | -104.81712 | 11570 ft | 270 kts | 82° |
| 2026-05-03 23:57 | 39.43228 | -104.79308 | 11312 ft | 268 kts | 82° |
| 2026-05-03 23:57 | 39.43440 | -104.76915 | 11080 ft | 265 kts | 81° |
| 2026-05-03 23:58 | 39.43883 | -104.74628 | 11020 ft | 264 kts | 67° |
| 2026-05-03 23:58 | 39.44577 | -104.72442 | 10978 ft | 261 kts | 65° |
| 2026-05-03 23:58 | 39.45368 | -104.70347 | 10959 ft | 255 kts | 50° |
| 2026-05-03 23:58 | 39.46190 | -104.69297 | 10974 ft | 249 kts | 32° |
| 2026-05-03 23:59 | 39.48072 | -104.68188 | 10986 ft | 250 kts | 13° |
| 2026-05-03 23:59 | 39.49758 | -104.67608 | 10986 ft | 252 kts | 11° |
| 2026-05-03 23:59 | 39.51463 | -104.67048 | 10992 ft | 253 kts | 12° |
| 2026-05-03 23:59 | 39.53161 | -104.66522 | 10980 ft | 249 kts | 5° |
| 2026-05-04 00:00 | 39.54902 | -104.66348 | 10703 ft | 251 kts | 358° |
| 2026-05-04 00:00 | 39.56595 | -104.66337 | 10447 ft | 234 kts | 357° |
| 2026-05-04 00:00 | 39.58170 | -104.66335 | 10128 ft | 219 kts | 357° |
| 2026-05-04 00:00 | 39.59632 | -104.66324 | 9868 ft | 208 kts | 357° |
| 2026-05-04 00:01 | 39.61105 | -104.66311 | 9596 ft | 210 kts | 357° |
| 2026-05-04 00:01 | 39.62546 | -104.66297 | 9345 ft | 210 kts | 358° |
| 2026-05-04 00:01 | 39.64007 | -104.66281 | 9046 ft | 210 kts | 358° |
| 2026-05-04 00:01 | 39.65462 | -104.66262 | 8767 ft | 208 kts | 358° |
| 2026-05-04 00:02 | 39.66905 | -104.66245 | 8493 ft | 206 kts | 358° |
| 2026-05-04 00:02 | 39.68330 | -104.66228 | 8238 ft | 203 kts | 358° |
| 2026-05-04 00:02 | 39.69733 | -104.66211 | 7971 ft | 201 kts | 357° |
| 2026-05-04 00:02 | 39.71124 | -104.66195 | 7711 ft | 198 kts | 357° |
| 2026-05-04 00:03 | 39.72490 | -104.66178 | 7474 ft | 197 kts | 356° |
| 2026-05-04 00:03 | 39.73865 | -104.66162 | 7209 ft | 198 kts | 357° |
| 2026-05-04 00:03 | 39.75209 | -104.66145 | 6991 ft | 188 kts | 357° |
| 2026-05-04 00:03 | 39.76466 | -104.66130 | 6749 ft | 174 kts | 357° |
| 2026-05-04 00:04 | 39.77617 | -104.66116 | 6562 ft | 156 kts | 358° |
| 2026-05-04 00:04 | 39.78564 | -104.66104 | 6422 ft | 137 kts | 357° |
| 2026-05-04 00:04 | 39.79473 | -104.66095 | 6167 ft | 129 kts | 355° |
| 2026-05-04 00:04 | 39.80368 | -104.66091 | 6040 ft | 130 kts | 357° |
| 2026-05-04 00:05 | 39.81258 | -104.66075 | 5854 ft | 124 kts | 357° |
| 2026-05-04 00:05 | 39.82108 | -104.66065 | 5639 ft | 121 kts | 358° |
| 2026-05-04 00:05 | 39.82942 | -104.66050 | 5466 ft | 117 kts | 356° |
| 2026-05-04 00:05 | 39.83451 | -104.66048 | 5436 ft | 100 kts | 1° |
| 2026-05-04 00:06 | 39.83990 | -104.66042 | 5415 ft | 55 kts | 0° |
| 2026-05-04 00:06 | 39.84306 | -104.66039 | 5409 ft | 42 kts | 0° |
| 2026-05-04 00:06 | 39.84560 | -104.66037 | 5412 ft | 31 kts | 0° |
| 2026-05-04 00:06 | 39.84762 | -104.66074 | 5408 ft | 27 kts | 345° |
| 2026-05-04 00:07 | 39.84918 | -104.66164 | 5405 ft | 21 kts | 332° |
| 2026-05-04 00:07 | 39.85036 | -104.66234 | 5401 ft | 18 kts | 345° |
| 2026-05-04 00:07 | 39.85162 | -104.66242 | 5398 ft | 18 kts | 1° |
| 2026-05-04 00:07 | 39.85289 | -104.66240 | 5395 ft | 18 kts | 1° |
| 2026-05-04 00:08 | 39.85416 | -104.66239 | 5396 ft | 18 kts | 0° |
| 2026-05-04 00:08 | 39.85525 | -104.66238 | 5395 ft | 11 kts | 0° |
| 2026-05-04 00:08 | 39.85578 | -104.66275 | 5386 ft | 10 kts | 292° |
| 2026-05-04 00:08 | 39.85584 | -104.66373 | 5393 ft | 12 kts | 271° |
| 2026-05-04 00:09 | 39.85585 | -104.66499 | 5388 ft | 15 kts | 270° |
| 2026-05-04 00:09 | 39.85585 | -104.66633 | 5386 ft | 15 kts | 271° |
| 2026-05-04 00:09 | 39.85587 | -104.66771 | 5387 ft | 15 kts | 270° |
| 2026-05-04 00:09 | 39.85590 | -104.66907 | 5384 ft | 14 kts | 279° |
| 2026-05-04 00:10 | 39.85620 | -104.67023 | 5379 ft | 13 kts | 290° |
| 2026-05-04 00:10 | 39.85651 | -104.67132 | 5383 ft | 12 kts | 291° |
| 2026-05-04 00:10 | 39.85696 | -104.67204 | 5378 ft | 8 kts | 334° |
| 2026-05-04 00:10 | 39.85739 | -104.67206 | 5382 ft | 6 kts | 2° |
| 2026-05-04 00:11 | 39.85773 | -104.67205 | 5381 ft | 5 kts | 1° |
| 2026-05-04 00:11 | 39.85794 | -104.67205 | 5382 ft | 1 kts | 0° |
| 2026-05-04 00:11 | 39.85803 | -104.67205 | 5382 ft | 1 kts | 0° |
| 2026-05-04 00:11 | 39.85805 | -104.67205 | 5382 ft | 0 kts | 0° |